createdAt,value
2023-03-30T10:41:42.729Z,0.4404
2023-03-30T10:42:44.632Z,0.4965
2023-03-30T10:43:46.971Z,0.5097
2023-03-30T10:44:48.814Z,0.5105
2023-03-30T10:45:50.835Z,0.5276
2023-03-30T10:46:53.504Z,0.5209
2023-03-30T10:47:56.868Z,0.5258
2023-03-30T10:48:56.916Z,0.5197
2023-03-30T10:49:58.909Z,0.5124
2023-03-30T10:51:00.948Z,0.5147
2023-03-30T10:52:03.466Z,0.5185
2023-03-30T10:53:05.062Z,0.5166
2023-03-30T10:54:07.015Z,0.5180
2023-03-30T10:55:09.024Z,0.5259
2023-03-30T10:56:11.145Z,0.5313
2023-03-30T10:57:13.217Z,0.5321
2023-03-30T10:58:15.496Z,0.5295
2023-03-30T10:59:17.498Z,0.5318
2023-03-30T11:00:19.547Z,0.5203
2023-03-30T11:01:21.395Z,0.5158
2023-03-30T11:02:23.649Z,0.5134
2023-03-30T11:03:25.804Z,0.5144
2023-03-30T11:04:27.751Z,0.5212
2023-03-30T11:05:31.989Z,0.5275
2023-03-30T11:06:31.568Z,0.5293
2023-03-30T11:07:33.681Z,0.5309
2023-03-30T11:08:35.630Z,0.5253
2023-03-30T11:09:37.688Z,0.5166
2023-03-30T11:10:41.102Z,0.5189
2023-03-30T11:11:41.767Z,0.5203
2023-03-30T11:12:43.860Z,0.5166
2023-03-30T11:13:45.934Z,0.5178
2023-03-30T11:14:47.953Z,0.5265
2023-03-30T11:15:49.979Z,0.5298
2023-03-30T11:16:53.517Z,0.5304
2023-03-30T11:17:57.248Z,0.5283
2023-03-30T11:18:56.514Z,0.5287
2023-03-30T11:19:59.464Z,0.5278
2023-03-30T11:21:01.739Z,0.5218
2023-03-30T11:22:02.406Z,0.5143
2023-03-30T11:23:04.369Z,0.5130
2023-03-30T11:24:08.075Z,0.5239
2023-03-30T11:25:09.215Z,0.5278
2023-03-30T11:26:11.765Z,0.5224
2023-03-30T11:27:15.195Z,0.5194
2023-03-30T11:28:19.810Z,0.5213
2023-03-30T11:29:16.977Z,0.5232
2023-03-30T11:30:20.138Z,0.5262
2023-03-30T11:31:20.802Z,0.5277
2023-03-30T11:32:22.730Z,0.5332
2023-03-30T11:33:25.849Z,0.5359
2023-03-30T11:34:26.919Z,0.5397
2023-03-30T11:35:29.220Z,0.5356
2023-03-30T11:36:30.888Z,0.5384
2023-03-30T11:37:33.036Z,0.5455
2023-03-30T11:38:34.977Z,0.5529
2023-03-30T11:39:37.060Z,0.5528
2023-03-30T11:40:39.086Z,0.5475
2023-03-30T11:41:41.112Z,0.5440
2023-03-30T11:42:43.161Z,0.5428
2023-03-30T11:43:45.666Z,0.5444
2023-03-30T11:44:47.384Z,0.5378
2023-03-30T11:45:49.396Z,0.5320
2023-03-30T11:46:51.774Z,0.5305
2023-03-30T11:47:53.474Z,0.5316
2023-03-30T11:48:55.573Z,0.5302
2023-03-30T11:49:57.599Z,0.5239
2023-03-30T11:50:59.522Z,0.5229
2023-03-30T11:52:01.618Z,0.5250
2023-03-30T11:53:03.941Z,0.5300
2023-03-30T11:54:05.929Z,0.5326
2023-03-30T11:55:07.771Z,0.5328
2023-03-30T11:56:09.907Z,0.5360
2023-03-30T11:57:11.874Z,0.5357
2023-03-30T11:58:13.823Z,0.5346
2023-03-30T11:59:16.035Z,0.5316
2023-03-30T12:00:17.985Z,0.5337
2023-03-30T12:01:19.978Z,0.5428
2023-03-30T12:02:23.263Z,0.5463
2023-03-30T12:03:24.386Z,0.5450
2023-03-30T12:04:26.334Z,0.5374
2023-03-30T12:05:28.146Z,0.5444
2023-03-30T12:06:30.216Z,0.5520
2023-03-30T12:07:32.267Z,0.5464
2023-03-30T12:08:34.304Z,0.5459
2023-03-30T12:09:36.364Z,0.5513
2023-03-30T12:10:38.450Z,0.5437
2023-03-30T12:11:40.530Z,0.5448
2023-03-30T12:12:42.558Z,0.5543
2023-03-30T12:13:51.089Z,0.5628
2023-03-30T12:14:46.590Z,0.5687
2023-03-30T12:15:48.646Z,0.5572
2023-03-30T12:16:50.769Z,0.5592
2023-03-30T12:17:53.681Z,0.5630
2023-03-30T12:18:54.809Z,0.5642
2023-03-30T12:19:57.094Z,0.5585
2023-03-30T12:20:58.961Z,0.5467
2023-03-30T12:22:00.923Z,0.5518
2023-03-30T12:23:02.976Z,0.5525
2023-03-30T12:24:05.064Z,0.5550
2023-03-30T12:25:07.082Z,0.5567
2023-03-30T12:26:09.106Z,0.5562
2023-03-30T12:27:11.756Z,0.5622
2023-03-30T12:28:13.247Z,0.5582
2023-03-30T12:30:17.552Z,0.5459
2023-03-30T12:31:19.356Z,0.5393
2023-03-30T12:32:21.429Z,0.5395
2023-03-30T12:33:23.486Z,0.5326
2023-03-30T12:34:25.488Z,0.5417
2023-03-30T12:35:27.645Z,0.5376
2023-03-30T12:36:29.577Z,0.5353
2023-03-30T12:37:31.627Z,0.5383
2023-03-30T12:38:33.726Z,0.5384
2023-03-30T12:39:35.772Z,0.5305
2023-03-30T12:40:37.809Z,0.5192
2023-03-30T12:41:39.821Z,0.5135
2023-03-30T12:42:41.855Z,0.5077
2023-03-30T12:43:43.917Z,0.5034
2023-03-30T12:44:45.980Z,0.5050
2023-03-30T12:45:48.101Z,0.5040
2023-03-30T12:46:50.115Z,0.5008
2023-03-30T12:47:52.181Z,0.4953
2023-03-30T12:48:54.316Z,0.4929
2023-03-30T12:49:56.206Z,0.4894
2023-03-30T12:50:58.309Z,0.4885
2023-03-30T12:52:00.348Z,0.4820
2023-03-30T12:53:03.818Z,0.4767
2023-03-30T12:54:04.404Z,0.4823
2023-03-30T12:55:06.435Z,0.4831
2023-03-30T12:56:09.089Z,0.4887
2023-03-30T12:57:10.575Z,0.4872
2023-03-30T12:58:12.585Z,0.4863
2023-03-30T12:59:14.646Z,0.4814
2023-03-30T13:00:16.676Z,0.4855
2023-03-30T13:01:18.773Z,0.4922
2023-03-30T13:02:20.770Z,0.4947
2023-03-30T13:03:22.798Z,0.4987
2023-03-30T13:04:24.860Z,0.5053
2023-03-30T13:05:26.911Z,0.5206
2023-03-30T13:06:28.976Z,0.5197
2023-03-30T13:07:31.040Z,0.5223
2023-03-30T13:08:33.080Z,0.5288
2023-03-30T13:09:35.151Z,0.5336
2023-03-30T13:10:37.177Z,0.5373
2023-03-30T13:11:39.300Z,0.5383
2023-03-30T13:12:41.257Z,0.5377
2023-03-30T13:13:43.306Z,0.5300
2023-03-30T13:14:45.438Z,0.5329
2023-03-30T13:15:47.460Z,0.5310
2023-03-30T13:16:49.534Z,0.5320
2023-03-30T13:17:51.545Z,0.5333
2023-03-30T13:18:53.590Z,0.5240
2023-03-30T13:19:55.667Z,0.5287
2023-03-30T13:20:57.670Z,0.5265
2023-03-30T13:21:59.768Z,0.5246
2023-03-30T13:23:01.870Z,0.5219
2023-03-30T13:24:03.874Z,0.5270
2023-03-30T13:25:05.895Z,0.5268
2023-03-30T13:26:08.074Z,0.5132
2023-03-30T13:27:10.024Z,0.5132
2023-03-30T13:28:13.629Z,0.5180
2023-03-30T13:29:14.096Z,0.5201
2023-03-30T13:30:16.195Z,0.5186
2023-03-30T13:31:18.296Z,0.5108
2023-03-30T13:32:20.323Z,0.5422
2023-03-30T13:33:22.303Z,0.6339
2023-03-30T13:34:24.346Z,0.6620
2023-03-30T13:35:26.437Z,0.6492
2023-03-30T13:36:28.439Z,0.6330
2023-03-30T13:37:30.525Z,0.6225
2023-03-30T13:38:32.553Z,0.6224
2023-03-30T13:39:34.642Z,0.6129
2023-03-30T13:40:46.137Z,0.5983
2023-03-30T13:41:38.700Z,0.5860
2023-03-30T13:42:40.816Z,0.5751
2023-03-30T13:43:42.789Z,0.5646
2023-03-30T13:44:44.870Z,0.5565
2023-03-30T13:45:47.041Z,0.5507
2023-03-30T13:46:49.470Z,0.5468
2023-03-30T13:47:51.206Z,0.5414
2023-03-30T13:48:53.274Z,0.5384
2023-03-30T13:49:55.194Z,0.5385
2023-03-30T13:50:57.246Z,0.5265
2023-03-30T13:51:59.280Z,0.5174
2023-03-30T13:53:01.483Z,0.5201
2023-03-30T13:54:03.374Z,0.5229
2023-03-30T13:55:05.487Z,0.5289
2023-03-30T13:56:07.589Z,0.5352
2023-03-30T13:57:09.597Z,0.5324
2023-03-30T13:58:11.744Z,0.5280
2023-03-30T13:59:13.684Z,0.5314
2023-03-30T14:00:15.858Z,0.5116
2023-03-30T14:01:17.739Z,0.5131
2023-03-30T14:02:19.818Z,0.5128
2023-03-30T14:03:22.531Z,0.5106
2023-03-30T14:04:23.891Z,0.5183
2023-03-30T14:05:25.976Z,0.5135
2023-03-30T14:06:28.110Z,0.5108
2023-03-30T14:07:30.124Z,0.5087
2023-03-30T14:08:32.104Z,0.5050
2023-03-30T14:09:34.155Z,0.5062
2023-03-30T14:10:36.218Z,0.5071
2023-03-30T14:11:38.504Z,0.5074
2023-03-30T14:12:40.344Z,0.5153
2023-03-30T14:13:42.449Z,0.5319
2023-03-30T14:14:44.489Z,0.5306
2023-03-30T14:15:46.531Z,0.5275
2023-03-30T14:16:48.886Z,0.5277
2023-03-30T14:17:50.691Z,0.5305
2023-03-30T14:18:52.790Z,0.5316
2023-03-30T14:19:54.716Z,0.5320
2023-03-30T14:20:56.790Z,0.5341
2023-03-30T14:21:58.948Z,0.5321
2023-03-30T14:23:01.157Z,0.5264
2023-03-30T14:24:03.199Z,0.5315
2023-03-30T14:25:05.265Z,0.5296
2023-03-30T14:26:07.482Z,0.5251
2023-03-30T14:27:09.418Z,0.5276
2023-03-30T14:28:11.437Z,0.5237
2023-03-30T14:29:21.088Z,0.5210
2023-03-30T14:30:15.511Z,0.5226
2023-03-30T14:31:17.653Z,0.5226
2023-03-30T14:32:19.704Z,0.5204
2023-03-30T14:33:21.739Z,0.5177
2023-03-30T14:34:23.772Z,0.5146
2023-03-30T14:35:25.768Z,0.5142
2023-03-30T14:36:27.947Z,0.5208
2023-03-30T14:37:30.000Z,0.5265
2023-03-30T14:38:31.932Z,0.5171
2023-03-30T14:39:34.021Z,0.5194
2023-03-30T14:40:36.163Z,0.5158
2023-03-30T14:41:38.162Z,0.5142
2023-03-30T14:42:40.183Z,0.5183
2023-03-30T14:43:42.197Z,0.5131
2023-03-30T14:44:44.408Z,0.5036
2023-03-30T14:45:46.573Z,0.5000
2023-03-30T14:46:48.432Z,0.5055
2023-03-30T14:47:50.597Z,0.5090
2023-03-30T14:48:52.580Z,0.5051
2023-03-30T14:49:54.654Z,0.5056
2023-03-30T14:50:56.668Z,0.5082
2023-03-30T14:51:58.716Z,0.5160
2023-03-30T14:53:00.754Z,0.5229
2023-03-30T14:54:02.799Z,0.5314
2023-03-30T14:55:08.615Z,0.5377
2023-03-30T14:56:07.164Z,0.5235
2023-03-30T14:57:08.972Z,0.5270
